Time;durP1;ratioP1;P1;durP2;ratioP2;P2;SDS_P1;SDS_P2;PMS_P1;PMS_P2;Temp;Humidity;BMP_temperature;BMP_pressure;BME280_temperature;BME280_humidity;BME280_pressure;Samples;Min_cycle;Max_cycle;Signal;HPM_P1;HPM_P2
2022/12/24 00:02:13;;;;;;;8.80;8.00;;;;;;;8.20;100.00;99216.38;5018556;28;20677;-79
2022/12/24 00:04:39;;;;;;;9.77;8.77;;;;;;;8.24;100.00;99215.38;5018859;28;20265;-79
2022/12/24 00:07:06;;;;;;;9.40;8.50;;;;;;;8.24;100.00;99224.94;5018708;28;20241;-80
2022/12/24 00:09:32;;;;;;;9.63;8.73;;;;;;;8.24;100.00;99222.34;5018193;28;20243;-79
2022/12/24 00:11:58;;;;;;;10.13;9.23;;;;;;;8.24;100.00;99225.78;5018019;28;20214;-80
2022/12/24 00:14:26;;;;;;;10.23;9.17;;;;;;;8.24;100.00;99225.78;5017732;28;20209;-80
2022/12/24 00:16:53;;;;;;;9.60;8.70;;;;;;;8.27;100.00;99230.06;5018589;28;20206;-80
2022/12/24 00:19:19;;;;;;;10.20;9.20;;;;;;;8.25;100.00;99227.50;5017682;28;20226;-80
2022/12/24 00:21:45;;;;;;;11.27;10.27;;;;;;;8.25;100.00;99235.31;5018049;28;20207;-81
2022/12/24 00:24:12;;;;;;;10.77;9.77;;;;;;;8.25;100.00;99234.47;5017637;28;20217;-80
2022/12/24 00:26:38;;;;;;;10.63;9.67;;;;;;;8.22;100.00;99237.13;5018090;28;20681;-79
2022/12/24 00:29:06;;;;;;;10.83;9.93;;;;;;;8.14;100.00;99226.94;5017470;28;20230;-80
2022/12/24 00:31:34;;;;;;;10.23;9.23;;;;;;;8.00;100.00;99208.31;5017553;28;20206;-81
2022/12/24 00:34:00;;;;;;;9.97;9.07;;;;;;;8.02;100.00;99204.75;5018006;28;20233;-80
2022/12/24 00:36:26;;;;;;;7.07;6.47;;;;;;;8.06;100.00;99205.53;5018010;28;20269;-80
2022/12/24 00:38:53;;;;;;;6.00;5.50;;;;;;;8.08;100.00;99199.38;5018023;28;20210;-80
2022/12/24 00:41:27;;;;;;;5.30;4.90;;;;;;;8.11;100.00;99203.66;5018142;28;20222;-79
2022/12/24 00:43:55;;;;;;;5.57;5.07;;;;;;;8.15;100.00;99202.69;5018309;28;20614;-80
2022/12/24 00:46:22;;;;;;;5.17;4.77;;;;;;;8.11;100.00;99212.31;5018031;28;20260;-80
2022/12/24 00:48:50;;;;;;;6.20;5.70;;;;;;;8.06;100.00;99206.38;5018083;28;20230;-79
2022/12/24 00:51:17;;;;;;;6.97;6.47;;;;;;;8.09;100.00;99202.88;5017554;28;20233;-80
2022/12/24 00:53:43;;;;;;;6.30;5.70;;;;;;;8.13;100.00;99201.88;5017083;28;20551;-80
2022/12/24 00:56:10;;;;;;;6.57;6.00;;;;;;;8.10;100.00;99223.59;5017368;28;20272;-80
2022/12/24 00:58:37;;;;;;;5.50;5.00;;;;;;;8.14;100.00;99226.94;5017199;28;20295;-80
2022/12/24 01:01:04;;;;;;;5.90;5.30;;;;;;;8.11;100.00;99229.66;5017058;28;20226;-79
2022/12/24 01:03:36;;;;;;;5.50;5.10;;;;;;;8.13;100.00;99238.25;5017781;28;20236;-80
2022/12/24 01:06:05;;;;;;;5.30;4.90;;;;;;;8.09;100.00;99228.84;5018069;28;20242;-80
2022/12/24 01:08:31;;;;;;;4.57;4.23;;;;;;;8.10;100.00;99226.19;5017569;28;20209;-80
2022/12/24 01:10:58;;;;;;;5.10;4.70;;;;;;;8.11;100.00;99230.50;5017782;28;20230;-80
2022/12/24 01:13:25;;;;;;;5.00;4.50;;;;;;;8.09;100.00;99229.69;5017743;28;20206;-80
2022/12/24 01:15:51;;;;;;;5.13;4.63;;;;;;;8.08;100.00;99224.53;5017424;28;20261;-80
2022/12/24 01:18:18;;;;;;;4.90;4.47;;;;;;;8.10;100.00;99225.34;5017393;28;20206;-80
2022/12/24 01:20:44;;;;;;;4.70;4.30;;;;;;;8.15;100.00;99236.47;5018436;28;20341;-80
2022/12/24 01:23:12;;;;;;;5.70;5.20;;;;;;;8.04;100.00;99234.16;5017674;28;20210;-80
2022/12/24 01:25:38;;;;;;;5.10;4.70;;;;;;;7.93;100.00;99226.69;5017841;28;20310;-80
2022/12/24 01:28:05;;;;;;;5.27;4.87;;;;;;;8.00;100.00;99213.50;5017261;28;20209;-80
2022/12/24 01:30:32;;;;;;;5.13;4.73;;;;;;;8.09;100.00;99213.25;5016818;28;20237;-80
2022/12/24 01:32:58;;;;;;;5.20;4.80;;;;;;;8.15;100.00;99213.06;5017558;28;20210;-80
2022/12/24 01:35:24;;;;;;;6.97;6.37;;;;;;;8.19;100.00;99221.66;5017348;28;20260;-80
2022/12/24 01:37:51;;;;;;;14.13;11.60;;;;;;;8.21;100.00;99231.09;5017085;28;20230;-80
2022/12/24 01:45:49;;;;;;;7.60;7.00;;;;;;;8.22;100.00;99261.38;5018215;28;20252;-80
2022/12/24 01:48:38;;;;;;;10.03;9.13;;;;;;;8.22;100.00;99270.94;5016476;28;20207;-80
2022/12/24 01:51:11;;;;;;;9.10;8.27;;;;;;;8.25;100.00;99276.06;5012324;28;20234;-80
2022/12/24 01:53:39;;;;;;;8.57;7.87;;;;;;;8.15;100.00;99270.25;5017309;28;20205;-80
2022/12/24 01:56:09;;;;;;;11.33;8.87;;;;;;;8.04;100.00;99220.31;5017336;28;20211;-80
2022/12/24 01:58:37;;;;;;;10.73;9.47;;;;;;;8.04;100.00;99182.19;5016314;28;20605;-80
2022/12/24 02:01:04;;;;;;;10.40;8.83;;;;;;;7.98;100.00;99164.19;5016940;28;20230;-79
2022/12/24 02:03:31;;;;;;;10.27;9.30;;;;;;;8.03;100.00;99151.06;5017168;28;20213;-80
2022/12/24 02:05:59;;;;;;;13.33;9.40;;;;;;;8.10;100.00;99163.81;5016670;28;20214;-80
2022/12/24 02:08:38;;;;;;;11.70;8.70;;;;;;;8.12;100.00;99162.00;5017297;28;20214;-80
2022/12/24 02:11:11;;;;;;;8.87;7.67;;;;;;;8.28;100.00;99164.16;5019339;28;20222;-80
2022/12/24 02:13:37;;;;;;;10.90;6.90;;;;;;;8.35;100.00;99171.75;5020020;28;20272;-79
2022/12/24 02:16:13;;;;;;;7.67;5.90;;;;;;;8.46;100.00;99168.84;5019538;28;20210;-79
2022/12/24 02:18:47;;;;;;;8.37;5.17;;;;;;;8.60;100.00;99186.59;5019844;28;20209;-79
2022/12/24 02:21:37;;;;;;;4.57;2.90;;;;;;;8.82;100.00;99201.53;5018538;28;20238;-79
2022/12/24 02:24:49;;;;;;;4.33;2.33;;;;;;;8.86;100.00;99214.44;5019888;28;20446;-79
2022/12/24 02:27:27;;;;;;;5.03;2.57;;;;;;;8.92;100.00;99229.84;5024664;28;20213;-79
2022/12/24 02:30:07;;;;;;;3.90;2.67;;;;;;;8.94;100.00;99230.66;5022830;28;20276;-79
2022/12/24 02:32:43;;;;;;;5.23;2.03;;;;;;;9.09;100.00;99228.44;5019566;28;20207;-79
2022/12/24 02:35:14;;;;;;;4.07;3.10;;;;;;;9.10;100.00;99259.66;5020160;28;20203;-80
2022/12/24 02:37:47;;;;;;;6.00;4.10;;;;;;;9.13;100.00;99246.50;5019667;28;20738;-80
2022/12/24 02:40:17;;;;;;;5.07;4.37;;;;;;;9.13;100.00;99245.66;5018814;28;20250;-80
2022/12/24 02:42:49;;;;;;;5.13;3.67;;;;;;;9.09;100.00;99246.66;5019737;28;20213;-79
2022/12/24 02:45:21;;;;;;;4.33;3.00;;;;;;;9.25;100.00;99262.66;5019708;28;20207;-79
2022/12/24 02:47:50;;;;;;;10.07;3.13;;;;;;;9.28;100.00;99280.78;5019214;28;20257;-79
2022/12/24 02:50:19;;;;;;;5.53;3.40;;;;;;;9.23;100.00;99287.88;5018685;28;20230;-80
2022/12/24 02:52:47;;;;;;;6.67;3.37;;;;;;;9.30;100.00;99295.44;5018742;28;20210;-80
2022/12/24 02:55:23;;;;;;;5.83;3.47;;;;;;;9.26;100.00;99287.81;5018969;28;20229;-79
2022/12/24 02:58:14;;;;;;;7.37;4.37;;;;;;;9.26;100.00;99299.06;5019744;28;20232;-80
2022/12/24 03:00:52;;;;;;;5.20;3.63;;;;;;;9.16;100.00;99292.44;5018744;28;20250;-80
2022/12/24 03:03:35;;;;;;;3.50;2.57;;;;;;;9.24;100.00;99295.66;5018880;28;20207;-80
2022/12/24 03:06:09;;;;;;;6.37;3.17;;;;;;;9.30;100.00;99303.25;5018228;28;20283;-80
2022/12/24 03:08:43;;;;;;;4.77;2.27;;;;;;;9.22;100.00;99318.28;5018748;28;20232;-80
2022/12/24 03:11:12;;;;;;;3.60;2.57;;;;;;;9.23;100.00;99306.09;5017414;28;20288;-80
2022/12/24 03:13:40;;;;;;;3.60;3.13;;;;;;;9.24;100.00;99313.88;5017968;28;20206;-79
2022/12/24 03:16:12;;;;;;;8.37;4.20;;;;;;;9.16;100.00;99300.25;5018098;28;20265;-79
2022/12/24 03:18:42;;;;;;;5.47;3.20;;;;;;;9.20;100.00;99316.63;5018358;28;20301;-79
2022/12/24 03:21:11;;;;;;;5.40;3.07;;;;;;;9.21;100.00;99333.94;5017156;28;20281;-79
2022/12/24 03:23:38;;;;;;;5.73;2.60;;;;;;;9.17;100.00;99337.56;5018976;28;20218;-79
2022/12/24 03:26:08;;;;;;;5.80;3.90;;;;;;;9.15;100.00;99332.38;5018222;28;20241;-80
2022/12/24 03:28:37;;;;;;;7.63;3.73;;;;;;;9.09;100.00;99314.34;5017903;28;20635;-80
2022/12/24 03:31:05;;;;;;;9.97;2.70;;;;;;;9.03;100.00;99331.00;5016587;28;20231;-81
2022/12/24 03:33:33;;;;;;;10.27;3.53;;;;;;;9.02;100.00;99328.44;5017227;28;20210;-80
2022/12/24 03:35:59;;;;;;;3.33;2.33;;;;;;;9.00;100.00;99343.25;5018152;28;20257;-80
2022/12/24 03:38:25;;;;;;;6.87;2.67;;;;;;;9.11;100.00;99356.81;5017939;28;20211;-80
2022/12/24 03:40:52;;;;;;;5.80;3.10;;;;;;;9.11;100.00;99372.44;5017057;28;20226;-79
2022/12/24 03:43:18;;;;;;;6.87;3.00;;;;;;;9.06;100.00;99385.59;5017097;28;20333;-80
2022/12/24 03:45:45;;;;;;;8.33;3.83;;;;;;;9.08;100.00;99391.59;5017087;28;20692;-80
2022/12/24 03:48:11;;;;;;;9.47;3.50;;;;;;;9.06;100.00;99408.19;5017237;28;20284;-79
2022/12/24 03:50:39;;;;;;;8.20;2.93;;;;;;;9.10;100.00;99418.44;5016390;28;20257;-80
2022/12/24 03:53:05;;;;;;;7.40;2.70;;;;;;;9.13;100.00;99425.31;5016827;28;20211;-80
2022/12/24 03:55:31;;;;;;;7.83;2.83;;;;;;;9.12;100.00;99442.69;5016937;28;20207;-81
2022/12/24 03:57:58;;;;;;;7.27;2.93;;;;;;;9.18;100.00;99465.09;5016932;28;20211;-80
2022/12/24 04:00:24;;;;;;;8.17;2.80;;;;;;;9.15;100.00;99460.78;5017068;28;20279;-80
2022/12/24 04:02:51;;;;;;;7.50;2.80;;;;;;;9.13;100.00;99480.81;5017032;28;20747;-80
2022/12/24 04:05:19;;;;;;;14.80;3.43;;;;;;;9.21;100.00;99511.84;5016558;28;20688;-79
2022/12/24 04:07:47;;;;;;;7.77;3.27;;;;;;;9.23;100.00;99507.44;5016625;28;20237;-79
2022/12/24 04:10:15;;;;;;;9.53;3.03;;;;;;;9.25;100.00;99512.63;5017073;28;20233;-80
2022/12/24 04:12:42;;;;;;;5.10;2.40;;;;;;;9.24;100.00;99516.97;5016723;28;20256;-79
2022/12/24 04:15:10;;;;;;;6.53;2.67;;;;;;;9.14;100.00;99526.81;5016809;28;20211;-80
2022/12/24 04:17:36;;;;;;;10.70;3.37;;;;;;;9.12;100.00;99501.72;5016764;28;20206;-79
2022/12/24 04:20:03;;;;;;;9.97;3.10;;;;;;;9.05;100.00;99502.78;5016714;28;20227;-79
2022/12/24 04:22:29;;;;;;;11.83;3.50;;;;;;;9.13;100.00;99491.22;5017115;28;20645;-79
2022/12/24 04:24:57;;;;;;;8.37;3.60;;;;;;;9.15;100.00;99499.00;5016777;28;20681;-79
2022/12/24 04:27:24;;;;;;;10.00;3.30;;;;;;;9.07;100.00;99511.38;5016485;28;20681;-81
2022/12/24 04:29:50;;;;;;;7.80;3.30;;;;;;;9.13;100.00;99513.81;5016465;28;20871;-79
2022/12/24 04:32:16;;;;;;;6.30;2.83;;;;;;;9.12;100.00;99523.38;5015623;28;20712;-80
2022/12/24 04:34:43;;;;;;;10.23;3.13;;;;;;;9.14;100.00;99546.78;5016343;28;20211;-79
2022/12/24 04:37:09;;;;;;;10.53;3.70;;;;;;;9.20;100.00;99562.22;5017086;28;20237;-79
2022/12/24 04:39:36;;;;;;;5.20;2.97;;;;;;;9.20;99.44;99603.03;5015761;28;20293;-79
2022/12/24 04:42:03;;;;;;;8.20;3.00;;;;;;;9.23;98.78;99621.19;5015700;28;20233;-79
2022/12/24 04:44:30;;;;;;;9.03;3.60;;;;;;;9.23;98.36;99640.25;5015605;28;20206;-80
2022/12/24 04:46:56;;;;;;;7.30;4.07;;;;;;;9.24;98.20;99634.16;5015871;28;20249;-80
2022/12/24 04:49:22;;;;;;;12.00;4.33;;;;;;;9.23;99.12;99623.78;5015723;28;20227;-80
2022/12/24 04:51:49;;;;;;;9.13;3.80;;;;;;;9.26;100.00;99606.31;5015541;28;20677;-80
2022/12/24 04:54:15;;;;;;;9.23;3.87;;;;;;;9.12;100.00;99591.06;5015601;28;20218;-79
2022/12/24 04:56:41;;;;;;;10.27;4.57;;;;;;;9.05;100.00;99567.84;5015553;28;20206;-79
2022/12/24 04:59:09;;;;;;;8.23;4.73;;;;;;;9.02;100.00;99547.09;5015797;28;20257;-80
2022/12/24 05:01:35;;;;;;;9.03;4.00;;;;;;;8.98;100.00;99543.75;5015137;28;20681;-80
2022/12/24 05:04:02;;;;;;;8.57;4.57;;;;;;;9.05;100.00;99524.44;5015436;28;20218;-79
2022/12/24 05:06:31;;;;;;;7.53;3.50;;;;;;;9.06;100.00;99507.09;5015484;28;20243;-79
2022/12/24 05:08:58;;;;;;;6.77;4.40;;;;;;;8.94;100.00;99526.50;5015495;28;20755;-80
2022/12/24 05:11:25;;;;;;;10.10;4.47;;;;;;;8.90;100.00;99559.56;5014765;28;20226;-80
2022/12/24 05:13:51;;;;;;;10.80;4.67;;;;;;;8.95;100.00;99570.69;5015962;28;20268;-80
2022/12/24 05:16:21;;;;;;;6.17;3.60;;;;;;;8.95;99.37;99607.13;5021741;28;20241;-80
2022/12/24 05:18:47;;;;;;;7.83;3.10;;;;;;;9.02;98.91;99633.00;5024825;28;20241;-80
2022/12/24 05:21:15;;;;;;;8.37;2.73;;;;;;;9.07;98.32;99644.16;5023144;28;20257;-80
2022/12/24 05:26:30;;;;;;;8.90;3.73;;;;;;;9.02;99.79;99622.56;5023136;28;20280;-80
2022/12/24 05:28:58;;;;;;;9.80;4.60;;;;;;;8.94;100.00;99615.00;5022453;28;20264;-80
2022/12/24 05:31:29;;;;;;;9.90;3.97;;;;;;;8.99;100.00;99620.06;5021696;28;20717;-80
2022/12/24 05:33:55;;;;;;;9.27;4.43;;;;;;;8.90;100.00;99615.94;5016207;28;20218;-79
2022/12/24 05:36:24;;;;;;;10.73;4.93;;;;;;;8.95;100.00;99606.28;5015833;28;20209;-79
2022/12/24 05:38:51;;;;;;;13.43;4.87;;;;;;;8.89;100.00;99593.44;5015554;28;20375;-79
2022/12/24 05:41:18;;;;;;;11.17;5.00;;;;;;;8.96;100.00;99592.38;5015338;28;20250;-79
2022/12/24 05:43:45;;;;;;;10.60;3.83;;;;;;;8.87;100.00;99601.25;5017668;28;20218;-80
2022/12/24 05:46:14;;;;;;;12.60;4.60;;;;;;;8.99;100.00;99602.69;5019178;28;20207;-80
2022/12/24 05:48:41;;;;;;;13.77;4.63;;;;;;;9.01;100.00;99610.47;5019392;28;20677;-80
2022/12/24 05:51:10;;;;;;;10.87;4.47;;;;;;;9.02;100.00;99623.47;5019145;28;20717;-79
2022/12/24 05:53:37;;;;;;;11.37;5.40;;;;;;;9.06;100.00;99617.28;5018961;28;20647;-79
2022/12/24 05:56:05;;;;;;;10.20;4.17;;;;;;;8.94;100.00;99635.81;5019568;28;20213;-81
2022/12/24 05:58:31;;;;;;;12.10;4.10;;;;;;;9.05;100.00;99643.34;5019535;28;20264;-80
2022/12/24 06:00:57;;;;;;;12.47;4.40;;;;;;;8.98;100.00;99660.88;5020221;28;20321;-81
2022/12/24 06:03:24;;;;;;;19.27;5.37;;;;;;;9.02;99.88;99672.03;5019876;28;20210;-81
2022/12/24 06:05:59;;;;;;;13.40;5.40;;;;;;;9.02;99.54;99683.31;5019463;28;20214;-81
2022/12/24 06:08:26;;;;;;;13.63;4.23;;;;;;;9.12;99.46;99679.59;5018775;28;20645;-80
2022/12/24 06:10:55;;;;;;;22.47;5.47;;;;;;;9.18;99.14;99685.53;5017619;28;20743;-81
2022/12/24 06:13:21;;;;;;;14.33;4.97;;;;;;;9.01;98.96;99697.22;5018776;28;20213;-80
2022/12/24 06:15:47;;;;;;;14.67;5.77;;;;;;;9.06;99.05;99702.34;5018427;28;20233;-80
2022/12/24 06:18:14;;;;;;;10.27;4.53;;;;;;;9.07;98.76;99720.50;5018887;28;20210;-80
2022/12/24 06:20:40;;;;;;;15.27;4.80;;;;;;;9.08;98.21;99735.25;5018891;28;20222;-81
2022/12/24 06:23:08;;;;;;;21.77;5.40;;;;;;;9.02;98.82;99731.91;5018141;28;20214;-79
2022/12/24 06:25:34;;;;;;;21.20;4.93;;;;;;;9.03;98.52;99721.47;5019205;28;20655;-79
2022/12/24 06:28:00;;;;;;;14.60;4.93;;;;;;;9.10;98.67;99732.59;5018718;28;20207;-80
2022/12/24 06:30:27;;;;;;;10.07;5.40;;;;;;;9.07;98.71;99736.13;5017756;28;20296;-79
2022/12/24 06:32:53;;;;;;;13.93;5.50;;;;;;;9.12;97.89;99739.47;5017358;28;20732;-78
2022/12/24 06:35:19;;;;;;;12.70;4.73;;;;;;;9.11;97.71;99744.72;5018274;28;20207;-80
2022/12/24 06:37:46;;;;;;;12.17;5.60;;;;;;;9.06;97.12;99752.66;5018147;28;20209;-79
2022/12/24 06:40:13;;;;;;;18.40;5.73;;;;;;;9.15;97.07;99752.41;5018540;28;20230;-80
2022/12/24 06:42:40;;;;;;;13.53;4.43;;;;;;;9.03;96.57;99765.72;5018986;28;20226;-81
2022/12/24 06:45:07;;;;;;;20.50;5.97;;;;;;;9.10;96.46;99769.91;5019200;28;20210;-80
2022/12/24 06:47:33;;;;;;;13.37;5.00;;;;;;;9.03;95.70;99789.16;5018345;28;20685;-80
2022/12/24 06:50:00;;;;;;;13.23;4.03;;;;;;;9.11;95.76;99799.38;5018482;28;20813;-80
2022/12/24 06:52:26;;;;;;;14.90;4.23;;;;;;;9.03;94.78;99803.91;5018591;28;20227;-79
2022/12/24 06:54:52;;;;;;;22.27;4.97;;;;;;;9.01;95.38;99824.78;5017452;28;20269;-80
2022/12/24 06:57:20;;;;;;;20.60;5.23;;;;;;;8.98;95.49;99823.97;5018695;28;20267;-80
2022/12/24 06:59:46;;;;;;;10.03;3.87;;;;;;;9.00;95.48;99822.19;5018040;28;20230;-80
2022/12/24 07:02:13;;;;;;;13.53;4.63;;;;;;;8.97;95.21;99843.97;5018382;28;20203;-80
2022/12/24 07:04:39;;;;;;;17.10;6.13;;;;;;;8.98;95.27;99837.88;5018097;28;20685;-80
2022/12/24 07:07:05;;;;;;;12.83;6.50;;;;;;;8.96;94.94;99850.06;5018002;28;20214;-80
2022/12/24 07:09:32;;;;;;;10.90;4.30;;;;;;;8.97;95.11;99853.53;5017860;28;20230;-80
2022/12/24 07:11:58;;;;;;;19.20;4.87;;;;;;;9.00;95.11;99851.72;5017530;28;20230;-80
2022/12/24 07:14:25;;;;;;;17.37;6.43;;;;;;;8.86;95.45;99872.84;5017729;28;20581;-80
2022/12/24 07:16:52;;;;;;;18.23;6.87;;;;;;;8.75;96.19;99865.22;5017727;28;20238;-80
2022/12/24 07:19:19;;;;;;;14.60;5.53;;;;;;;8.76;96.30;99866.13;5017464;28;20229;-81
2022/12/24 07:21:46;;;;;;;25.57;6.77;;;;;;;8.84;96.04;99860.72;5016932;28;20203;-81
2022/12/24 07:24:12;;;;;;;12.90;5.30;;;;;;;8.96;96.15;99855.28;5017610;28;20674;-79
2022/12/24 07:26:38;;;;;;;12.93;6.07;;;;;;;8.80;95.88;99874.69;5017241;28;20636;-80
2022/12/24 07:29:05;;;;;;;17.23;5.33;;;;;;;8.69;96.04;99864.50;5017341;28;20680;-80
2022/12/24 07:31:33;;;;;;;11.80;5.07;;;;;;;8.64;96.81;99867.22;5016871;28;20643;-80
2022/12/24 07:33:59;;;;;;;17.23;6.07;;;;;;;8.63;97.01;99854.22;5016267;28;20205;-80
2022/12/24 07:36:27;;;;;;;13.23;5.53;;;;;;;8.71;97.06;99850.56;5017675;28;20212;-80
2022/12/24 07:38:53;;;;;;;16.97;5.53;;;;;;;8.86;97.20;99852.00;5017232;28;20281;-80
2022/12/24 07:41:20;;;;;;;20.53;5.67;;;;;;;8.80;96.46;99859.97;5016739;28;20258;-80
2022/12/24 07:43:46;;;;;;;14.23;5.13;;;;;;;8.78;96.41;99861.72;5017263;28;20234;-80
2022/12/24 07:46:12;;;;;;;11.67;5.87;;;;;;;8.88;96.66;99872.78;5017311;28;20244;-80
2022/12/24 07:48:40;;;;;;;19.27;5.70;;;;;;;8.73;96.58;99881.78;5016541;28;20210;-80
2022/12/24 07:51:07;;;;;;;16.10;5.50;;;;;;;8.82;96.94;99875.50;5016584;28;20233;-80
2022/12/24 07:53:33;;;;;;;18.17;5.87;;;;;;;8.91;96.91;99870.13;5017272;28;20211;-80
2022/12/24 07:56:00;;;;;;;13.57;5.03;;;;;;;8.84;96.50;99876.34;5017134;28;20328;-80
2022/12/24 07:58:26;;;;;;;12.30;4.77;;;;;;;8.82;96.55;99885.91;5017514;28;20238;-80
2022/12/24 08:00:57;;;;;;;14.20;4.97;;;;;;;8.66;96.76;99883.66;5015642;28;20657;-80
2022/12/24 08:03:24;;;;;;;15.57;5.40;;;;;;;8.74;97.27;99873.94;5016613;28;20217;-80
2022/12/24 08:05:52;;;;;;;16.87;9.83;;;;;;;8.68;96.88;99878.41;5016873;28;20268;-80
2022/12/24 08:08:19;;;;;;;19.23;6.63;;;;;;;8.74;97.43;99873.94;5016720;28;20241;-80
2022/12/24 08:10:46;;;;;;;18.87;6.00;;;;;;;8.73;97.26;99876.56;5015226;28;20225;-80
2022/12/24 08:13:14;;;;;;;20.70;5.33;;;;;;;8.84;97.39;99872.00;5015795;28;20213;-80
2022/12/24 08:15:41;;;;;;;17.90;5.70;;;;;;;8.90;97.45;99871.88;5016730;28;20282;-80
2022/12/24 08:18:07;;;;;;;11.77;5.40;;;;;;;8.97;96.94;99882.16;5016646;28;20199;-80
2022/12/24 08:20:33;;;;;;;15.40;5.00;;;;;;;8.98;96.52;99900.34;5016589;28;20735;-80
2022/12/24 08:23:01;;;;;;;12.40;5.80;;;;;;;8.98;96.33;99910.75;5016789;28;20261;-80
2022/12/24 08:25:27;;;;;;;20.67;5.97;;;;;;;9.12;96.62;99918.28;5016769;28;20207;-80
2022/12/24 08:27:54;;;;;;;13.30;5.17;;;;;;;9.18;96.05;99927.69;5015677;28;20545;-80
2022/12/24 08:30:20;;;;;;;12.33;5.47;;;;;;;9.20;96.26;99928.53;5016087;28;20724;-80
2022/12/24 08:32:47;;;;;;;17.93;5.80;;;;;;;9.21;96.12;99932.84;5016226;28;20303;-80
2022/12/24 08:35:13;;;;;;;18.23;6.13;;;;;;;9.20;96.54;99936.34;5016740;28;20211;-80
2022/12/24 08:37:39;;;;;;;14.13;5.63;;;;;;;9.09;96.88;99937.41;5016132;28;20210;-80
2022/12/24 08:40:08;;;;;;;17.97;5.60;;;;;;;9.23;97.09;99928.44;5016026;28;20230;-80
2022/12/24 08:42:35;;;;;;;14.07;5.07;;;;;;;9.32;96.64;99939.53;5015854;28;20678;-80
2022/12/24 08:45:01;;;;;;;17.17;5.90;;;;;;;9.33;96.43;99946.44;5016727;28;20213;-81
2022/12/24 08:47:27;;;;;;;14.03;6.70;;;;;;;9.36;96.39;99949.91;5016913;28;20698;-80
2022/12/24 08:49:54;;;;;;;21.57;6.07;;;;;;;9.32;96.21;99960.38;5015435;28;20799;-81
2022/12/24 08:52:20;;;;;;;15.77;7.23;;;;;;;9.36;96.32;99966.38;5016093;28;20222;-82
2022/12/24 08:54:46;;;;;;;13.63;6.57;;;;;;;9.42;96.29;99955.81;5015803;28;20269;-80
2022/12/24 08:57:14;;;;;;;17.93;5.80;;;;;;;9.44;96.41;99966.22;5017330;28;20281;-81
2022/12/24 08:59:40;;;;;;;21.60;6.70;;;;;;;9.24;97.04;99959.69;5015838;28;20598;-81
2022/12/24 09:02:08;;;;;;;15.57;7.17;;;;;;;9.23;98.02;99938.88;5016097;28;20232;-81
2022/12/24 09:04:39;;;;;;;17.33;8.07;;;;;;;9.31;97.77;99945.63;5016866;28;20272;-80
2022/12/24 09:07:05;;;;;;;19.90;7.07;;;;;;;9.37;97.89;99947.22;5015942;28;20207;-80
2022/12/24 09:09:32;;;;;;;16.70;6.90;;;;;;;9.33;98.09;99935.16;5017082;28;20256;-80
2022/12/24 09:11:58;;;;;;;19.70;7.47;;;;;;;9.23;97.79;99939.72;5016603;28;20651;-81
2022/12/24 09:14:26;;;;;;;29.87;7.97;;;;;;;9.25;98.13;99937.09;5016247;28;20241;-81
2022/12/24 09:16:52;;;;;;;15.47;6.80;;;;;;;9.34;97.99;99939.50;5016149;28;20207;-80
2022/12/24 09:19:19;;;;;;;17.63;7.03;;;;;;;9.40;98.07;99959.34;5015035;28;20672;-80
2022/12/24 09:21:45;;;;;;;19.33;8.47;;;;;;;9.51;97.86;99955.63;5015538;28;20210;-81
2022/12/24 09:24:11;;;;;;;18.57;7.03;;;;;;;9.56;97.54;99971.13;5015154;28;20206;-81
2022/12/24 09:26:40;;;;;;;14.27;6.80;;;;;;;9.59;96.83;99983.22;5015911;28;20237;-81
2022/12/24 09:29:07;;;;;;;14.77;5.97;;;;;;;9.41;97.00;99993.16;5016076;28;20204;-80
2022/12/24 09:31:35;;;;;;;15.73;6.23;;;;;;;9.59;96.93;99991.91;5015487;28;20627;-81
2022/12/24 09:34:01;;;;;;;15.43;6.47;;;;;;;9.67;96.83;100007.38;5014538;28;20210;-81
2022/12/24 09:36:28;;;;;;;15.17;6.50;;;;;;;9.66;96.65;100010.88;5015198;28;20234;-83
2022/12/24 09:38:54;;;;;;;8.83;5.27;;;;;;;9.71;96.73;100011.63;5015604;28;20621;-82
2022/12/24 09:41:32;;;;;;;11.50;5.63;;;;;;;9.54;96.55;100023.28;5014323;28;20234;-79
2022/12/24 09:44:03;;;;;;;10.37;5.37;;;;;;;9.57;96.54;100026.72;5015700;28;20206;-81
2022/12/24 09:46:34;;;;;;;8.90;5.93;;;;;;;9.58;97.20;100020.63;5014881;28;20672;-79
2022/12/24 09:49:06;;;;;;;9.33;4.97;;;;;;;9.62;97.37;100001.41;5015022;28;20760;-80
2022/12/24 09:51:37;;;;;;;8.87;5.67;;;;;;;9.71;96.98;100009.91;5014283;28;20779;-79
2022/12/24 09:54:10;;;;;;;14.60;5.80;;;;;;;9.63;97.07;100017.03;5015535;28;20233;-78
2022/12/24 09:56:40;;;;;;;9.10;5.40;;;;;;;9.59;97.54;100019.72;5015430;28;20253;-79
2022/12/24 09:59:11;;;;;;;16.10;6.30;;;;;;;9.51;97.78;100007.72;5014873;28;20253;-80
2022/12/24 10:01:38;;;;;;;16.80;6.37;;;;;;;9.42;98.68;99992.28;5014257;28;20223;-79
2022/12/24 10:04:12;;;;;;;11.97;6.63;;;;;;;9.36;98.82;99983.75;5013925;28;20839;-79
2022/12/24 10:06:44;;;;;;;10.13;6.80;;;;;;;9.42;98.99;99979.25;5010416;28;20201;-78
2022/12/24 10:09:18;;;;;;;11.63;7.70;;;;;;;9.30;99.79;99980.38;5002569;28;20216;-79
2022/12/24 10:11:52;;;;;;;13.97;7.50;;;;;;;9.42;99.58;99975.81;5012177;28;20218;-80
2022/12/24 10:14:33;;;;;;;11.07;7.80;;;;;;;9.47;99.30;99968.72;5012669;28;20195;-79
2022/12/24 10:17:16;;;;;;;15.47;8.37;;;;;;;9.42;100.00;99970.59;5014789;28;20272;-80
2022/12/24 10:19:50;;;;;;;13.33;8.37;;;;;;;9.49;100.00;99959.13;5009578;28;20226;-79
2022/12/24 10:22:24;;;;;;;24.77;13.60;;;;;;;9.41;100.00;99964.50;5011388;28;20225;-79
2022/12/24 10:24:59;;;;;;;12.97;9.83;;;;;;;9.52;100.00;99949.50;5013858;28;20287;-79
2022/12/24 10:27:31;;;;;;;17.13;8.07;;;;;;;9.57;100.00;99966.78;5010992;28;20232;-80
2022/12/24 10:30:02;;;;;;;13.50;8.10;;;;;;;9.54;100.00;99973.78;5013860;28;20237;-79
2022/12/24 10:32:32;;;;;;;12.27;7.47;;;;;;;9.46;100.00;99967.88;5017031;28;20728;-80
2022/12/24 10:35:06;;;;;;;14.10;8.63;;;;;;;9.36;100.00;99957.72;5016791;28;20253;-80
2022/12/24 10:37:32;;;;;;;12.63;7.63;;;;;;;9.47;100.00;99955.69;5017513;28;20214;-81
2022/12/24 10:40:00;;;;;;;17.53;11.50;;;;;;;9.41;100.00;99955.84;5017571;28;20280;-80
2022/12/24 10:42:36;;;;;;;8.90;6.57;;;;;;;9.54;100.00;99960.75;5018024;28;20237;-81
2022/12/24 10:45:05;;;;;;;8.40;6.67;;;;;;;9.63;100.00;99951.00;5017774;28;20292;-81
2022/12/24 10:47:34;;;;;;;12.47;6.87;;;;;;;9.58;100.00;99958.94;5017854;28;20216;-82
2022/12/24 10:50:12;;;;;;;7.73;5.93;;;;;;;9.43;100.00;99959.28;5017663;28;20267;-82
2022/12/24 10:52:42;;;;;;;9.03;6.57;;;;;;;9.39;100.00;99950.66;5017528;28;20309;-81
2022/12/24 10:55:20;;;;;;;11.73;7.33;;;;;;;9.38;100.00;99945.50;5017734;28;20206;-80
2022/12/24 10:57:56;;;;;;;8.10;5.80;;;;;;;9.53;100.00;99956.44;5017377;28;20261;-80
2022/12/24 11:00:24;;;;;;;7.70;5.40;;;;;;;9.40;100.00;99967.16;5017216;28;20230;-80
2022/12/24 11:03:07;;;;;;;7.70;6.10;;;;;;;9.57;100.00;99964.19;5016051;28;20268;-81
2022/12/24 11:05:37;;;;;;;8.80;6.07;;;;;;;9.64;100.00;99984.84;5017071;28;20681;-81
2022/12/24 11:08:06;;;;;;;7.77;5.83;;;;;;;9.60;100.00;99991.03;5017465;28;20208;-81
2022/12/24 11:10:35;;;;;;;11.50;6.50;;;;;;;9.65;100.00;99993.53;5017460;28;20227;-80
2022/12/24 11:13:02;;;;;;;7.03;5.43;;;;;;;9.66;100.00;99993.50;5017099;28;20708;-80
2022/12/24 11:15:33;;;;;;;7.00;6.33;;;;;;;9.73;100.00;99989.88;5017512;28;20202;-80
2022/12/24 11:18:02;;;;;;;10.70;6.60;;;;;;;9.64;100.00;99995.28;5017553;28;20297;-80
2022/12/24 11:20:31;;;;;;;6.40;5.57;;;;;;;9.67;100.00;99973.50;5016683;28;20292;-80
2022/12/24 11:22:59;;;;;;;8.40;7.50;;;;;;;9.05;100.00;99934.91;5017583;28;20214;-81
2022/12/24 11:25:28;;;;;;;10.90;7.37;;;;;;;9.05;100.00;99888.91;5017105;28;20207;-80
2022/12/24 11:27:55;;;;;;;10.60;7.80;;;;;;;8.97;100.00;99853.53;5016741;28;20213;-80
2022/12/24 11:30:32;;;;;;;8.60;7.13;;;;;;;9.02;100.00;99852.53;5016441;28;20234;-80
2022/12/24 11:33:20;;;;;;;11.90;8.10;;;;;;;8.99;100.00;99844.78;5016823;28;20716;-78
2022/12/24 11:35:51;;;;;;;10.57;9.47;;;;;;;9.05;100.00;99849.84;5017304;28;20210;-81
2022/12/24 11:38:22;;;;;;;8.10;7.30;;;;;;;8.92;100.00;99880.50;5017187;28;20214;-80
2022/12/24 11:40:50;;;;;;;8.57;6.43;;;;;;;8.96;100.00;99873.50;5017109;28;20257;-80
2022/12/24 11:43:18;;;;;;;8.30;6.30;;;;;;;8.98;100.00;99881.25;5016452;28;20214;-81
2022/12/24 11:45:49;;;;;;;6.70;6.10;;;;;;;8.72;100.00;99906.94;5016931;28;20213;-81
2022/12/24 11:48:34;;;;;;;4.77;4.37;;;;;;;8.70;100.00;99921.72;5009730;28;20213;-81